Pagrindinis puslapis
METAR-TAF:

METAR-TAF

Oro uostai :

Sonora Municipal Airport

Sonora, Teksasas, Jungtinės Amerikos Valstijos

platuma: 30-35-08N, ilguma: 100-38-54W, Aukštis: 652 m

Dabartinis oras

Ataskaita buvo paskelbta 21 minutes, ne 08:55 UTC
Ramus vėjas
Temperatūra 16°C
Drėgmė 59%
Slėgis 1021 hPa
Matomumas: 16.1 km
Giedras dangus

METAR: KSOA 020855Z AUTO 00000KT 10SM CLR 16/08 A3015 RMK AO2

Laikas: 04:16 (09:16 UTC)

Prognozė

Ataskaita buvo paskelbta 3 valandos ir 56 minutes, ne 05:20 UTC
Prognozė galioja nuo 02 metu 06 UTC su 03 metu 06 UTC
Vėjas 3 kt nuo kintamojo kryptimis
Matomumas: 10 km
Giedras dangus
Nuo 02 metu 1900 UTC
Vėjas 8 kt iš Rytų
Matomumas: 10 km
Giedras dangus
Nuo 03 metu 0200 UTC
Vėjas 3 kt nuo kintamojo kryptimis
Matomumas: 10 km
Giedras dangus

TAF: KSOA 020520Z 0206/0306 VRB03KT P6SM SKC FM021900 09008KT P6SM SKC FM030200 VRB03KT P6SM SKC

Orai ataskaitas ir orų prognozės (METAR, TAF).

turimą stotys yra geltonos ir raudonos taškus žemėlapyje.

Perkelti pele per norėdami pamatyti stoties vardą.

Tada spustelėkite, norėdami matyti oro stebėjimo ir prognozės.

Norėdami pakeisti žemėlapį: spustelėkite ant žalios mygtukų su juodo kryžiaus žemyn,; žalią mygtuką su brūkšneliu, jei norite nutolinti; arba žalių rodyklių gretimoms žemėlapius.


METAR-TAF: